sensor_id;sensor_type;location;lat;lon;timestamp;temperature;humidity
24224;DHT22;12359;49.716;9.212;2022-11-23T00:01:34;4.40;61.00
24224;DHT22;12359;49.716;9.212;2022-11-23T00:04:05;4.40;62.90
24224;DHT22;12359;49.716;9.212;2022-11-23T00:06:31;4.40;62.50
24224;DHT22;12359;49.716;9.212;2022-11-23T00:08:57;4.30;63.00
24224;DHT22;12359;49.716;9.212;2022-11-23T00:11:25;4.40;65.20
24224;DHT22;12359;49.716;9.212;2022-11-23T00:13:52;4.40;66.40
24224;DHT22;12359;49.716;9.212;2022-11-23T00:16:23;4.40;69.80
24224;DHT22;12359;49.716;9.212;2022-11-23T00:18:52;4.40;71.50
24224;DHT22;12359;49.716;9.212;2022-11-23T00:21:18;4.40;71.00
24224;DHT22;12359;49.716;9.212;2022-11-23T00:23:45;4.40;73.20
24224;DHT22;12359;49.716;9.212;2022-11-23T00:26:11;4.30;75.10
24224;DHT22;12359;49.716;9.212;2022-11-23T00:28:37;4.30;71.40
24224;DHT22;12359;49.716;9.212;2022-11-23T00:31:09;4.30;70.00
24224;DHT22;12359;49.716;9.212;2022-11-23T00:33:35;4.20;68.00
24224;DHT22;12359;49.716;9.212;2022-11-23T00:36:20;4.20;65.00
24224;DHT22;12359;49.716;9.212;2022-11-23T00:38:48;4.10;61.90
24224;DHT22;12359;49.716;9.212;2022-11-23T00:41:20;4.00;59.00
24224;DHT22;12359;49.716;9.212;2022-11-23T00:43:46;3.80;55.20
24224;DHT22;12359;49.716;9.212;2022-11-23T00:46:20;3.80;63.50
24224;DHT22;12359;49.716;9.212;2022-11-23T00:48:48;3.80;63.40
24224;DHT22;12359;49.716;9.212;2022-11-23T00:51:17;3.70;63.60
24224;DHT22;12359;49.716;9.212;2022-11-23T00:53:43;3.70;68.20
24224;DHT22;12359;49.716;9.212;2022-11-23T00:56:09;3.70;68.70
24224;DHT22;12359;49.716;9.212;2022-11-23T00:58:35;3.70;69.20
24224;DHT22;12359;49.716;9.212;2022-11-23T01:01:09;3.70;67.70
24224;DHT22;12359;49.716;9.212;2022-11-23T01:03:37;3.70;67.10
24224;DHT22;12359;49.716;9.212;2022-11-23T01:06:06;3.70;68.20
24224;DHT22;12359;49.716;9.212;2022-11-23T01:08:32;3.80;74.70
24224;DHT22;12359;49.716;9.212;2022-11-23T01:11:00;3.70;69.60
24224;DHT22;12359;49.716;9.212;2022-11-23T01:13:26;3.90;83.30
24224;DHT22;12359;49.716;9.212;2022-11-23T01:15:52;4.00;92.50
24224;DHT22;12359;49.716;9.212;2022-11-23T01:18:18;4.10;89.80
24224;DHT22;12359;49.716;9.212;2022-11-23T01:20:43;4.20;87.10
24224;DHT22;12359;49.716;9.212;2022-11-23T01:23:09;4.20;85.80
24224;DHT22;12359;49.716;9.212;2022-11-23T01:25:35;4.20;86.10
24224;DHT22;12359;49.716;9.212;2022-11-23T01:28:01;4.20;83.50
24224;DHT22;12359;49.716;9.212;2022-11-23T01:30:27;4.10;81.30
24224;DHT22;12359;49.716;9.212;2022-11-23T01:32:52;4.00;80.10
24224;DHT22;12359;49.716;9.212;2022-11-23T01:35:18;4.00;79.50
24224;DHT22;12359;49.716;9.212;2022-11-23T01:37:44;4.00;75.80
24224;DHT22;12359;49.716;9.212;2022-11-23T01:40:10;3.90;75.40
24224;DHT22;12359;49.716;9.212;2022-11-23T01:42:56;3.90;77.50
24224;DHT22;12359;49.716;9.212;2022-11-23T01:48:15;4.10;90.60
24224;DHT22;12359;49.716;9.212;2022-11-23T01:50:44;4.20;90.80
24224;DHT22;12359;49.716;9.212;2022-11-23T01:53:10;4.30;89.70
24224;DHT22;12359;49.716;9.212;2022-11-23T01:55:37;4.30;87.80
24224;DHT22;12359;49.716;9.212;2022-11-23T01:58:05;4.30;84.50
24224;DHT22;12359;49.716;9.212;2022-11-23T02:00:34;4.30;83.60
24224;DHT22;12359;49.716;9.212;2022-11-23T02:03:00;4.40;82.60
24224;DHT22;12359;49.716;9.212;2022-11-23T02:05:36;4.40;82.10
24224;DHT22;12359;49.716;9.212;2022-11-23T02:08:04;4.50;82.60
24224;DHT22;12359;49.716;9.212;2022-11-23T02:10:30;4.50;80.60
24224;DHT22;12359;49.716;9.212;2022-11-23T02:13:07;4.50;81.20
24224;DHT22;12359;49.716;9.212;2022-11-23T02:15:34;4.50;79.90
24224;DHT22;12359;49.716;9.212;2022-11-23T02:18:03;4.30;76.20
24224;DHT22;12359;49.716;9.212;2022-11-23T02:20:30;4.30;78.40
24224;DHT22;12359;49.716;9.212;2022-11-23T02:28:12;4.20;81.10
24224;DHT22;12359;49.716;9.212;2022-11-23T02:30:39;4.20;83.40
24224;DHT22;12359;49.716;9.212;2022-11-23T02:33:06;4.20;84.20
24224;DHT22;12359;49.716;9.212;2022-11-23T02:35:32;4.20;87.60
24224;DHT22;12359;49.716;9.212;2022-11-23T02:37:59;4.30;90.20
24224;DHT22;12359;49.716;9.212;2022-11-23T02:40:31;4.30;90.30
24224;DHT22;12359;49.716;9.212;2022-11-23T02:42:58;4.30;89.30
24224;DHT22;12359;49.716;9.212;2022-11-23T02:45:50;4.30;87.70
24224;DHT22;12359;49.716;9.212;2022-11-23T02:48:17;4.10;85.10
24224;DHT22;12359;49.716;9.212;2022-11-23T02:50:44;4.10;87.70
24224;DHT22;12359;49.716;9.212;2022-11-23T02:53:10;4.10;86.80
24224;DHT22;12359;49.716;9.212;2022-11-23T02:55:36;4.10;85.90
24224;DHT22;12359;49.716;9.212;2022-11-23T02:58:03;4.00;83.80
24224;DHT22;12359;49.716;9.212;2022-11-23T03:00:29;4.00;83.50
24224;DHT22;12359;49.716;9.212;2022-11-23T03:02:55;4.10;85.70
24224;DHT22;12359;49.716;9.212;2022-11-23T03:05:20;4.10;86.80
24224;DHT22;12359;49.716;9.212;2022-11-23T03:07:46;4.20;86.90
24224;DHT22;12359;49.716;9.212;2022-11-23T03:10:12;4.20;86.60
24224;DHT22;12359;49.716;9.212;2022-11-23T03:12:38;4.30;85.00
24224;DHT22;12359;49.716;9.212;2022-11-23T03:15:04;4.30;82.80
24224;DHT22;12359;49.716;9.212;2022-11-23T03:17:30;4.30;82.80
24224;DHT22;12359;49.716;9.212;2022-11-23T03:19:56;4.40;86.60
24224;DHT22;12359;49.716;9.212;2022-11-23T03:22:23;4.40;86.50
24224;DHT22;12359;49.716;9.212;2022-11-23T03:24:49;4.50;86.80
24224;DHT22;12359;49.716;9.212;2022-11-23T03:27:14;4.50;86.20
24224;DHT22;12359;49.716;9.212;2022-11-23T03:29:40;4.60;85.40
24224;DHT22;12359;49.716;9.212;2022-11-23T03:32:06;4.60;83.30
24224;DHT22;12359;49.716;9.212;2022-11-23T03:34:31;4.60;78.10
24224;DHT22;12359;49.716;9.212;2022-11-23T03:36:57;4.50;76.30
24224;DHT22;12359;49.716;9.212;2022-11-23T03:39:23;4.50;74.60
24224;DHT22;12359;49.716;9.212;2022-11-23T03:41:48;4.50;74.30
24224;DHT22;12359;49.716;9.212;2022-11-23T03:44:14;4.40;75.00
24224;DHT22;12359;49.716;9.212;2022-11-23T03:46:40;4.50;77.20
24224;DHT22;12359;49.716;9.212;2022-11-23T03:49:05;4.50;77.80
24224;DHT22;12359;49.716;9.212;2022-11-23T03:51:31;4.60;78.10
24224;DHT22;12359;49.716;9.212;2022-11-23T03:53:56;4.60;77.50
24224;DHT22;12359;49.716;9.212;2022-11-23T03:56:22;4.60;77.80
24224;DHT22;12359;49.716;9.212;2022-11-23T03:58:49;4.70;77.20
24224;DHT22;12359;49.716;9.212;2022-11-23T04:01:14;4.80;79.60
24224;DHT22;12359;49.716;9.212;2022-11-23T04:03:40;4.80;80.50
24224;DHT22;12359;49.716;9.212;2022-11-23T04:06:06;4.90;81.10
24224;DHT22;12359;49.716;9.212;2022-11-23T04:08:31;4.90;77.90
24224;DHT22;12359;49.716;9.212;2022-11-23T04:10:58;4.90;75.60
24224;DHT22;12359;49.716;9.212;2022-11-23T04:13:24;4.90;74.60
24224;DHT22;12359;49.716;9.212;2022-11-23T04:15:49;4.90;75.20
24224;DHT22;12359;49.716;9.212;2022-11-23T04:18:15;4.90;73.00
24224;DHT22;12359;49.716;9.212;2022-11-23T04:20:41;4.90;73.20
24224;DHT22;12359;49.716;9.212;2022-11-23T04:23:07;4.90;74.00
24224;DHT22;12359;49.716;9.212;2022-11-23T04:25:32;5.00;75.00
24224;DHT22;12359;49.716;9.212;2022-11-23T04:27:58;5.00;73.80
24224;DHT22;12359;49.716;9.212;2022-11-23T04:30:24;5.00;75.00
24224;DHT22;12359;49.716;9.212;2022-11-23T04:32:50;5.10;75.10
24224;DHT22;12359;49.716;9.212;2022-11-23T04:35:15;5.10;74.80
24224;DHT22;12359;49.716;9.212;2022-11-23T04:37:41;5.20;74.60
24224;DHT22;12359;49.716;9.212;2022-11-23T04:40:07;5.20;72.70
24224;DHT22;12359;49.716;9.212;2022-11-23T04:42:33;5.10;68.90
24224;DHT22;12359;49.716;9.212;2022-11-23T04:44:59;5.20;71.10
24224;DHT22;12359;49.716;9.212;2022-11-23T04:47:25;5.20;70.40
24224;DHT22;12359;49.716;9.212;2022-11-23T04:49:50;5.20;71.70
24224;DHT22;12359;49.716;9.212;2022-11-23T04:52:16;5.20;72.20
24224;DHT22;12359;49.716;9.212;2022-11-23T04:54:42;5.20;73.20
24224;DHT22;12359;49.716;9.212;2022-11-23T04:57:07;5.20;72.30
24224;DHT22;12359;49.716;9.212;2022-11-23T04:59:33;5.20;73.20
24224;DHT22;12359;49.716;9.212;2022-11-23T05:01:59;5.20;72.50
24224;DHT22;12359;49.716;9.212;2022-11-23T05:04:24;5.30;74.30
24224;DHT22;12359;49.716;9.212;2022-11-23T05:06:50;5.30;73.80
24224;DHT22;12359;49.716;9.212;2022-11-23T05:09:16;5.40;72.20
24224;DHT22;12359;49.716;9.212;2022-11-23T05:11:42;5.40;72.00
24224;DHT22;12359;49.716;9.212;2022-11-23T05:14:07;5.50;71.70
24224;DHT22;12359;49.716;9.212;2022-11-23T05:16:33;5.60;66.00
24224;DHT22;12359;49.716;9.212;2022-11-23T05:18:59;5.80;57.20
24224;DHT22;12359;49.716;9.212;2022-11-23T05:21:24;5.90;52.30
24224;DHT22;12359;49.716;9.212;2022-11-23T05:23:50;6.00;46.70
24224;DHT22;12359;49.716;9.212;2022-11-23T05:26:16;6.10;43.00
24224;DHT22;12359;49.716;9.212;2022-11-23T05:28:41;6.20;36.30
24224;DHT22;12359;49.716;9.212;2022-11-23T05:31:07;6.20;32.90
24224;DHT22;12359;49.716;9.212;2022-11-23T05:33:34;6.30;34.70
24224;DHT22;12359;49.716;9.212;2022-11-23T05:36:00;6.20;32.80
24224;DHT22;12359;49.716;9.212;2022-11-23T05:38:25;6.20;28.50
24224;DHT22;12359;49.716;9.212;2022-11-23T05:40:51;6.20;29.20
24224;DHT22;12359;49.716;9.212;2022-11-23T05:43:17;6.20;30.00
24224;DHT22;12359;49.716;9.212;2022-11-23T05:45:42;6.20;30.20
24224;DHT22;12359;49.716;9.212;2022-11-23T05:48:08;6.20;32.50
24224;DHT22;12359;49.716;9.212;2022-11-23T05:50:35;6.20;33.70
24224;DHT22;12359;49.716;9.212;2022-11-23T05:53:00;6.10;31.30
24224;DHT22;12359;49.716;9.212;2022-11-23T05:55:26;6.20;30.00
24224;DHT22;12359;49.716;9.212;2022-11-23T05:57:52;6.20;23.40
24224;DHT22;12359;49.716;9.212;2022-11-23T06:00:18;6.30;16.20
24224;DHT22;12359;49.716;9.212;2022-11-23T06:02:44;6.40;14.80
24224;DHT22;12359;49.716;9.212;2022-11-23T06:05:10;6.40;10.90
24224;DHT22;12359;49.716;9.212;2022-11-23T06:07:36;6.40;5.40
24224;DHT22;12359;49.716;9.212;2022-11-23T06:10:04;6.40;10.50
24224;DHT22;12359;49.716;9.212;2022-11-23T06:12:30;6.50;6.10
24224;DHT22;12359;49.716;9.212;2022-11-23T06:14:56;6.50;5.60
24224;DHT22;12359;49.716;9.212;2022-11-23T06:17:21;6.50;11.90
24224;DHT22;12359;49.716;9.212;2022-11-23T06:19:47;6.50;11.10
24224;DHT22;12359;49.716;9.212;2022-11-23T06:22:13;6.50;8.90
24224;DHT22;12359;49.716;9.212;2022-11-23T06:24:40;6.60;11.00
24224;DHT22;12359;49.716;9.212;2022-11-23T06:27:05;6.60;13.00
24224;DHT22;12359;49.716;9.212;2022-11-23T06:29:31;6.50;2.20
24224;DHT22;12359;49.716;9.212;2022-11-23T06:31:57;6.50;2.50
24224;DHT22;12359;49.716;9.212;2022-11-23T06:34:22;6.50;1.00
24224;DHT22;12359;49.716;9.212;2022-11-23T06:36:48;6.60;1.00
24224;DHT22;12359;49.716;9.212;2022-11-23T06:39:13;6.60;1.00
24224;DHT22;12359;49.716;9.212;2022-11-23T06:41:39;6.50;4.10
24224;DHT22;12359;49.716;9.212;2022-11-23T06:44:05;6.40;8.60
24224;DHT22;12359;49.716;9.212;2022-11-23T06:46:31;6.40;11.10
24224;DHT22;12359;49.716;9.212;2022-11-23T06:48:56;6.40;16.60
24224;DHT22;12359;49.716;9.212;2022-11-23T06:51:22;6.30;20.20
24224;DHT22;12359;49.716;9.212;2022-11-23T06:53:48;6.30;10.80
24224;DHT22;12359;49.716;9.212;2022-11-23T06:56:14;6.40;3.30
24224;DHT22;12359;49.716;9.212;2022-11-23T06:58:39;6.40;4.90
24224;DHT22;12359;49.716;9.212;2022-11-23T07:01:07;6.50;1.00
24224;DHT22;12359;49.716;9.212;2022-11-23T07:03:34;6.50;1.00
24224;DHT22;12359;49.716;9.212;2022-11-23T07:06:04;6.60;1.00
24224;DHT22;12359;49.716;9.212;2022-11-23T07:08:30;6.70;5.10
24224;DHT22;12359;49.716;9.212;2022-11-23T07:11:02;6.60;12.80
24224;DHT22;12359;49.716;9.212;2022-11-23T07:13:31;6.60;9.30
24224;DHT22;12359;49.716;9.212;2022-11-23T07:15:57;6.50;10.30
24224;DHT22;12359;49.716;9.212;2022-11-23T07:18:24;6.60;17.40
24224;DHT22;12359;49.716;9.212;2022-11-23T07:20:49;6.60;15.40
24224;DHT22;12359;49.716;9.212;2022-11-23T07:23:15;6.60;3.40
24224;DHT22;12359;49.716;9.212;2022-11-23T07:25:41;6.60;2.70
24224;DHT22;12359;49.716;9.212;2022-11-23T07:28:09;6.60;4.30
24224;DHT22;12359;49.716;9.212;2022-11-23T07:30:35;6.60;5.00
24224;DHT22;12359;49.716;9.212;2022-11-23T07:33:06;6.60;1.00
24224;DHT22;12359;49.716;9.212;2022-11-23T07:35:33;6.70;1.00
24224;DHT22;12359;49.716;9.212;2022-11-23T07:38:00;6.70;1.00
24224;DHT22;12359;49.716;9.212;2022-11-23T07:40:26;6.80;1.00
24224;DHT22;12359;49.716;9.212;2022-11-23T07:42:51;6.80;1.00
24224;DHT22;12359;49.716;9.212;2022-11-23T07:45:17;6.80;1.00
24224;DHT22;12359;49.716;9.212;2022-11-23T07:47:43;6.90;1.00
24224;DHT22;12359;49.716;9.212;2022-11-23T07:50:10;6.90;1.00
24224;DHT22;12359;49.716;9.212;2022-11-23T07:52:37;6.90;1.00
24224;DHT22;12359;49.716;9.212;2022-11-23T07:55:04;7.00;1.00
24224;DHT22;12359;49.716;9.212;2022-11-23T07:57:29;7.10;1.00
24224;DHT22;12359;49.716;9.212;2022-11-23T07:59:55;7.20;1.00
24224;DHT22;12359;49.716;9.212;2022-11-23T08:02:21;7.30;1.00
24224;DHT22;12359;49.716;9.212;2022-11-23T08:04:46;7.30;1.00
24224;DHT22;12359;49.716;9.212;2022-11-23T08:07:12;7.30;1.00
24224;DHT22;12359;49.716;9.212;2022-11-23T08:09:38;7.40;1.00
24224;DHT22;12359;49.716;9.212;2022-11-23T08:12:04;7.30;1.00
24224;DHT22;12359;49.716;9.212;2022-11-23T08:14:29;7.30;1.00
24224;DHT22;12359;49.716;9.212;2022-11-23T08:16:55;7.40;1.00
24224;DHT22;12359;49.716;9.212;2022-11-23T08:19:21;7.50;1.00
24224;DHT22;12359;49.716;9.212;2022-11-23T08:21:46;7.50;1.00
24224;DHT22;12359;49.716;9.212;2022-11-23T08:24:12;7.50;1.00
24224;DHT22;12359;49.716;9.212;2022-11-23T08:26:38;7.50;1.00
24224;DHT22;12359;49.716;9.212;2022-11-23T08:29:04;7.50;1.00
24224;DHT22;12359;49.716;9.212;2022-11-23T08:31:30;7.50;1.00
24224;DHT22;12359;49.716;9.212;2022-11-23T08:33:56;7.50;1.00
24224;DHT22;12359;49.716;9.212;2022-11-23T08:36:22;7.50;99.90
24224;DHT22;12359;49.716;9.212;2022-11-23T08:38:48;7.50;99.90
24224;DHT22;12359;49.716;9.212;2022-11-23T08:41:16;7.60;99.90
24224;DHT22;12359;49.716;9.212;2022-11-23T08:43:49;7.70;99.90
24224;DHT22;12359;49.716;9.212;2022-11-23T08:46:15;7.80;99.90
24224;DHT22;12359;49.716;9.212;2022-11-23T08:48:41;8.20;99.90
24224;DHT22;12359;49.716;9.212;2022-11-23T08:51:08;8.60;62.30
24224;DHT22;12359;49.716;9.212;2022-11-23T08:53:34;8.80;1.00
24224;DHT22;12359;49.716;9.212;2022-11-23T08:56:01;9.10;99.90
24224;DHT22;12359;49.716;9.212;2022-11-23T08:58:27;9.20;99.90
24224;DHT22;12359;49.716;9.212;2022-11-23T09:00:52;9.50;99.90
24224;DHT22;12359;49.716;9.212;2022-11-23T09:03:18;9.80;99.90
24224;DHT22;12359;49.716;9.212;2022-11-23T09:05:44;10.00;99.90
24224;DHT22;12359;49.716;9.212;2022-11-23T09:08:10;10.20;99.90
24224;DHT22;12359;49.716;9.212;2022-11-23T09:10:36;10.20;99.90
24224;DHT22;12359;49.716;9.212;2022-11-23T09:13:02;10.10;99.90
24224;DHT22;12359;49.716;9.212;2022-11-23T09:15:28;10.20;99.90
24224;DHT22;12359;49.716;9.212;2022-11-23T09:17:55;10.20;33.90
24224;DHT22;12359;49.716;9.212;2022-11-23T09:20:23;10.10;99.90
24224;DHT22;12359;49.716;9.212;2022-11-23T09:22:51;9.90;1.00
24224;DHT22;12359;49.716;9.212;2022-11-23T09:25:17;10.00;99.90
24224;DHT22;12359;49.716;9.212;2022-11-23T09:27:42;10.20;99.90
24224;DHT22;12359;49.716;9.212;2022-11-23T09:30:09;10.30;1.00
24224;DHT22;12359;49.716;9.212;2022-11-23T09:32:35;10.40;1.00
24224;DHT22;12359;49.716;9.212;2022-11-23T09:35:01;10.40;99.90
24224;DHT22;12359;49.716;9.212;2022-11-23T09:37:27;10.40;1.00
24224;DHT22;12359;49.716;9.212;2022-11-23T09:39:52;10.70;99.90
24224;DHT22;12359;49.716;9.212;2022-11-23T09:42:44;11.40;99.90
24224;DHT22;12359;49.716;9.212;2022-11-23T09:45:46;11.70;1.00
24224;DHT22;12359;49.716;9.212;2022-11-23T09:48:24;11.90;21.80
24224;DHT22;12359;49.716;9.212;2022-11-23T09:51:03;12.00;99.90
24224;DHT22;12359;49.716;9.212;2022-11-23T09:53:54;12.20;99.90
24224;DHT22;12359;49.716;9.212;2022-11-23T09:56:31;12.40;1.00
24224;DHT22;12359;49.716;9.212;2022-11-23T09:59:04;12.60;1.00
24224;DHT22;12359;49.716;9.212;2022-11-23T10:01:35;12.40;1.00
24224;DHT22;12359;49.716;9.212;2022-11-23T10:04:03;12.30;1.00
24224;DHT22;12359;49.716;9.212;2022-11-23T10:06:30;12.30;1.00
24224;DHT22;12359;49.716;9.212;2022-11-23T10:12:12;12.30;1.00
24224;DHT22;12359;49.716;9.212;2022-11-23T10:22:59;12.80;99.90
24224;DHT22;12359;49.716;9.212;2022-11-23T10:25:26;13.00;99.90
24224;DHT22;12359;49.716;9.212;2022-11-23T10:27:56;12.90;99.90
24224;DHT22;12359;49.716;9.212;2022-11-23T10:30:23;12.80;99.90
24224;DHT22;12359;49.716;9.212;2022-11-23T10:35:33;13.10;99.90
24224;DHT22;12359;49.716;9.212;2022-11-23T10:38:24;13.20;99.90
24224;DHT22;12359;49.716;9.212;2022-11-23T10:43:30;13.30;74.00
24224;DHT22;12359;49.716;9.212;2022-11-23T10:48:48;13.10;21.90
24224;DHT22;12359;49.716;9.212;2022-11-23T10:51:18;13.20;16.50
24224;DHT22;12359;49.716;9.212;2022-11-23T10:53:51;13.00;4.10
24224;DHT22;12359;49.716;9.212;2022-11-23T10:56:18;13.00;28.80
24224;DHT22;12359;49.716;9.212;2022-11-23T10:58:45;13.20;1.00
24224;DHT22;12359;49.716;9.212;2022-11-23T11:01:28;13.20;1.00
24224;DHT22;12359;49.716;9.212;2022-11-23T11:03:57;13.00;1.00
24224;DHT22;12359;49.716;9.212;2022-11-23T11:06:29;13.00;1.00
24224;DHT22;12359;49.716;9.212;2022-11-23T11:08:56;13.00;24.40
24224;DHT22;12359;49.716;9.212;2022-11-23T11:11:38;13.00;45.50
24224;DHT22;12359;49.716;9.212;2022-11-23T11:14:05;13.00;1.00
24224;DHT22;12359;49.716;9.212;2022-11-23T11:16:47;13.00;1.00
24224;DHT22;12359;49.716;9.212;2022-11-23T11:19:32;12.80;1.00
24224;DHT22;12359;49.716;9.212;2022-11-23T11:22:01;12.90;21.10
24224;DHT22;12359;49.716;9.212;2022-11-23T11:24:34;12.90;1.00
24224;DHT22;12359;49.716;9.212;2022-11-23T11:27:11;13.10;9.10
24224;DHT22;12359;49.716;9.212;2022-11-23T11:29:55;13.30;1.00
24224;DHT22;12359;49.716;9.212;2022-11-23T11:35:31;13.40;1.00
24224;DHT22;12359;49.716;9.212;2022-11-23T11:38:21;13.40;1.00
24224;DHT22;12359;49.716;9.212;2022-11-23T11:40:51;13.50;1.00
24224;DHT22;12359;49.716;9.212;2022-11-23T11:43:39;13.60;1.00
24224;DHT22;12359;49.716;9.212;2022-11-23T11:46:21;13.70;1.00
24224;DHT22;12359;49.716;9.212;2022-11-23T11:48:51;13.80;1.00
24224;DHT22;12359;49.716;9.212;2022-11-23T11:51:25;14.20;1.00
24224;DHT22;12359;49.716;9.212;2022-11-23T11:56:54;14.30;99.90
24224;DHT22;12359;49.716;9.212;2022-11-23T12:04:42;14.30;99.90
24224;DHT22;12359;49.716;9.212;2022-11-23T12:10:00;14.10;99.90
24224;DHT22;12359;49.716;9.212;2022-11-23T12:12:27;14.10;99.90
24224;DHT22;12359;49.716;9.212;2022-11-23T12:14:53;14.10;99.90
24224;DHT22;12359;49.716;9.212;2022-11-23T12:25:34;12.90;99.90
24224;DHT22;12359;49.716;9.212;2022-11-23T12:39:24;12.10;1.00
24224;DHT22;12359;49.716;9.212;2022-11-23T12:41:55;11.90;1.00
24224;DHT22;12359;49.716;9.212;2022-11-23T12:49:54;11.70;1.00
24224;DHT22;12359;49.716;9.212;2022-11-23T12:55:14;11.60;1.00
24224;DHT22;12359;49.716;9.212;2022-11-23T12:57:52;11.40;1.00
24224;DHT22;12359;49.716;9.212;2022-11-23T13:00:22;11.40;1.00
24224;DHT22;12359;49.716;9.212;2022-11-23T13:19:40;11.10;1.00
24224;DHT22;12359;49.716;9.212;2022-11-23T13:22:15;11.10;1.00
24224;DHT22;12359;49.716;9.212;2022-11-23T13:30:34;11.00;1.00
24224;DHT22;12359;49.716;9.212;2022-11-23T13:40:43;10.80;44.40
24224;DHT22;12359;49.716;9.212;2022-11-23T13:43:20;10.80;58.80
24224;DHT22;12359;49.716;9.212;2022-11-23T13:48:46;10.70;99.90
24224;DHT22;12359;49.716;9.212;2022-11-23T13:51:27;10.70;96.10
24224;DHT22;12359;49.716;9.212;2022-11-23T13:56:43;10.60;67.70
24224;DHT22;12359;49.716;9.212;2022-11-23T14:04:39;10.50;31.50
24224;DHT22;12359;49.716;9.212;2022-11-23T14:07:28;10.50;1.00
24224;DHT22;12359;49.716;9.212;2022-11-23T14:21:04;10.30;1.00
24224;DHT22;12359;49.716;9.212;2022-11-23T14:28:48;10.20;1.00
24224;DHT22;12359;49.716;9.212;2022-11-23T14:42:51;10.00;50.00
24224;DHT22;12359;49.716;9.212;2022-11-23T14:45:20;9.90;33.80
24224;DHT22;12359;49.716;9.212;2022-11-23T14:47:47;9.90;1.00
24224;DHT22;12359;49.716;9.212;2022-11-23T14:50:25;9.90;1.00
24224;DHT22;12359;49.716;9.212;2022-11-23T14:52:53;9.80;1.00
24224;DHT22;12359;49.716;9.212;2022-11-23T14:55:28;9.80;1.00
24224;DHT22;12359;49.716;9.212;2022-11-23T14:58:00;9.70;1.00
24224;DHT22;12359;49.716;9.212;2022-11-23T15:00:39;9.70;1.00
24224;DHT22;12359;49.716;9.212;2022-11-23T15:03:08;9.70;1.00
24224;DHT22;12359;49.716;9.212;2022-11-23T15:05:42;9.60;1.00
24224;DHT22;12359;49.716;9.212;2022-11-23T15:08:29;9.50;1.00
24224;DHT22;12359;49.716;9.212;2022-11-23T15:11:07;9.50;1.00
24224;DHT22;12359;49.716;9.212;2022-11-23T15:13:52;9.40;79.50
24224;DHT22;12359;49.716;9.212;2022-11-23T15:16:20;9.30;99.90
24224;DHT22;12359;49.716;9.212;2022-11-23T15:18:47;9.20;99.90
24224;DHT22;12359;49.716;9.212;2022-11-23T15:23:54;8.90;62.00
24224;DHT22;12359;49.716;9.212;2022-11-23T15:26:30;8.80;99.90
24224;DHT22;12359;49.716;9.212;2022-11-23T15:28:56;8.60;1.00
24224;DHT22;12359;49.716;9.212;2022-11-23T15:31:29;8.50;16.80
24224;DHT22;12359;49.716;9.212;2022-11-23T15:33:59;8.40;99.90
24224;DHT22;12359;49.716;9.212;2022-11-23T15:36:30;8.10;19.60
24224;DHT22;12359;49.716;9.212;2022-11-23T15:38:57;7.90;75.70
24224;DHT22;12359;49.716;9.212;2022-11-23T15:41:25;7.80;99.90
24224;DHT22;12359;49.716;9.212;2022-11-23T15:43:57;7.60;1.00
24224;DHT22;12359;49.716;9.212;2022-11-23T15:46:26;7.50;99.90
24224;DHT22;12359;49.716;9.212;2022-11-23T15:48:53;7.40;1.00
24224;DHT22;12359;49.716;9.212;2022-11-23T15:51:29;7.30;1.00
24224;DHT22;12359;49.716;9.212;2022-11-23T15:53:59;7.20;99.90
24224;DHT22;12359;49.716;9.212;2022-11-23T15:56:36;7.10;99.90
24224;DHT22;12359;49.716;9.212;2022-11-23T16:01:55;6.90;99.90
24224;DHT22;12359;49.716;9.212;2022-11-23T16:06:53;6.70;1.00
24224;DHT22;12359;49.716;9.212;2022-11-23T16:09:39;6.70;7.70
24224;DHT22;12359;49.716;9.212;2022-11-23T16:14:49;6.50;99.90
24224;DHT22;12359;49.716;9.212;2022-11-23T16:17:23;6.40;99.90
24224;DHT22;12359;49.716;9.212;2022-11-23T16:19:54;6.30;99.90
24224;DHT22;12359;49.716;9.212;2022-11-23T16:22:29;6.20;99.90
24224;DHT22;12359;49.716;9.212;2022-11-23T16:27:26;6.10;99.90
24224;DHT22;12359;49.716;9.212;2022-11-23T16:29:52;6.10;99.90
24224;DHT22;12359;49.716;9.212;2022-11-23T16:32:29;6.00;99.90
24224;DHT22;12359;49.716;9.212;2022-11-23T16:35:07;6.10;99.90
24224;DHT22;12359;49.716;9.212;2022-11-23T16:37:33;6.10;99.90
24224;DHT22;12359;49.716;9.212;2022-11-23T16:39:59;6.20;99.90
24224;DHT22;12359;49.716;9.212;2022-11-23T16:42:24;6.20;99.90
24224;DHT22;12359;49.716;9.212;2022-11-23T16:44:51;6.20;99.90
24224;DHT22;12359;49.716;9.212;2022-11-23T16:47:22;6.30;99.90
24224;DHT22;12359;49.716;9.212;2022-11-23T16:49:49;6.30;99.90
24224;DHT22;12359;49.716;9.212;2022-11-23T16:52:15;6.30;99.90
24224;DHT22;12359;49.716;9.212;2022-11-23T16:54:41;6.30;99.90
24224;DHT22;12359;49.716;9.212;2022-11-23T16:57:32;6.30;99.90
24224;DHT22;12359;49.716;9.212;2022-11-23T17:00:01;6.30;99.90
24224;DHT22;12359;49.716;9.212;2022-11-23T17:02:27;6.40;99.90
24224;DHT22;12359;49.716;9.212;2022-11-23T17:04:53;6.40;99.90
24224;DHT22;12359;49.716;9.212;2022-11-23T17:07:19;6.40;99.90
24224;DHT22;12359;49.716;9.212;2022-11-23T17:09:44;6.30;99.90
24224;DHT22;12359;49.716;9.212;2022-11-23T17:12:17;6.40;99.90
24224;DHT22;12359;49.716;9.212;2022-11-23T17:14:46;6.50;99.90
24224;DHT22;12359;49.716;9.212;2022-11-23T17:17:20;6.50;99.90
24224;DHT22;12359;49.716;9.212;2022-11-23T17:19:47;6.50;1.00
24224;DHT22;12359;49.716;9.212;2022-11-23T17:22:18;6.50;1.00
24224;DHT22;12359;49.716;9.212;2022-11-23T17:24:45;6.50;1.00
24224;DHT22;12359;49.716;9.212;2022-11-23T17:27:17;6.50;1.00
24224;DHT22;12359;49.716;9.212;2022-11-23T17:29:45;6.60;1.00
24224;DHT22;12359;49.716;9.212;2022-11-23T17:32:12;6.60;1.00
24224;DHT22;12359;49.716;9.212;2022-11-23T17:34:39;6.60;1.00
24224;DHT22;12359;49.716;9.212;2022-11-23T17:37:05;6.70;99.90
24224;DHT22;12359;49.716;9.212;2022-11-23T17:39:33;6.70;99.90
24224;DHT22;12359;49.716;9.212;2022-11-23T17:41:58;6.80;99.90
24224;DHT22;12359;49.716;9.212;2022-11-23T17:44:24;6.80;99.90
24224;DHT22;12359;49.716;9.212;2022-11-23T17:46:50;6.90;99.90
24224;DHT22;12359;49.716;9.212;2022-11-23T17:49:18;6.90;99.90
24224;DHT22;12359;49.716;9.212;2022-11-23T17:51:45;6.90;99.90
24224;DHT22;12359;49.716;9.212;2022-11-23T17:54:11;6.90;99.90
24224;DHT22;12359;49.716;9.212;2022-11-23T17:56:37;6.80;99.90
24224;DHT22;12359;49.716;9.212;2022-11-23T17:59:03;6.90;1.00
24224;DHT22;12359;49.716;9.212;2022-11-23T18:01:31;6.90;99.90
24224;DHT22;12359;49.716;9.212;2022-11-23T18:03:57;7.00;99.90
24224;DHT22;12359;49.716;9.212;2022-11-23T18:06:26;7.00;99.90
24224;DHT22;12359;49.716;9.212;2022-11-23T18:08:52;7.10;1.00
24224;DHT22;12359;49.716;9.212;2022-11-23T18:11:19;7.10;1.00
24224;DHT22;12359;49.716;9.212;2022-11-23T18:13:46;7.20;1.00
24224;DHT22;12359;49.716;9.212;2022-11-23T18:16:13;7.20;99.90
24224;DHT22;12359;49.716;9.212;2022-11-23T18:18:39;7.10;99.90
24224;DHT22;12359;49.716;9.212;2022-11-23T18:21:05;7.10;1.00
24224;DHT22;12359;49.716;9.212;2022-11-23T18:23:32;7.00;99.90
24224;DHT22;12359;49.716;9.212;2022-11-23T18:26:00;6.90;1.00
24224;DHT22;12359;49.716;9.212;2022-11-23T18:28:26;6.90;1.00